Terminal Aerodrome Forecast
Issued by NWS Sterling, VA

Current Version | Previous Version | Text Only | Print | Product List | Glossary Off
Versions: 1 2 3 4 5 6 7 8 9 10 11 12 13 14 15 16 17 18 19 20 21 22 23 24 25 26 27 28

213
FTUS41 KLWX 212335
TAFIAD
TAF
KIAD 212335Z 2200/2306 VRB04KT 4SM BR OVC005
     FM220500 VRB03KT 1/4SM FG OVC003
     FM221500 05005KT 2SM BR OVC003
     FM221800 05006KT 1SM -RA BR OVC003
     FM230400 08010G17KT 2SM -RA BR OVC003=

USA.gov is the U.S. government's official web portal to all federal, state and local government web resources and services.